sensor_id;sensor_type;location;lat;lon;timestamp;pressure;altitude;pressure_sealevel;temperature;humidity
16255;BME280;8235;52.198;9.904;2023-04-19T00:01:21;102086.41;;;9.26;56.30
16255;BME280;8235;52.198;9.904;2023-04-19T00:03:48;102085.66;;;9.23;55.77
16255;BME280;8235;52.198;9.904;2023-04-19T00:06:20;102088.34;;;9.21;55.74
16255;BME280;8235;52.198;9.904;2023-04-19T00:08:46;102086.56;;;9.22;56.27
16255;BME280;8235;52.198;9.904;2023-04-19T00:11:13;102078.66;;;9.20;56.17
16255;BME280;8235;52.198;9.904;2023-04-19T00:13:41;102076.09;;;9.17;55.72
16255;BME280;8235;52.198;9.904;2023-04-19T00:16:08;102072.59;;;9.15;55.50
16255;BME280;8235;52.198;9.904;2023-04-19T00:18:34;102077.13;;;9.13;54.77
16255;BME280;8235;52.198;9.904;2023-04-19T00:21:03;102074.63;;;9.09;53.77
16255;BME280;8235;52.198;9.904;2023-04-19T00:23:30;102081.84;;;9.05;53.66
16255;BME280;8235;52.198;9.904;2023-04-19T00:25:56;102075.69;;;9.03;52.56
16255;BME280;8235;52.198;9.904;2023-04-19T00:28:23;102072.28;;;8.99;52.97
16255;BME280;8235;52.198;9.904;2023-04-19T00:30:51;102080.25;;;8.99;52.10
16255;BME280;8235;52.198;9.904;2023-04-19T00:33:17;102076.78;;;8.97;51.32
16255;BME280;8235;52.198;9.904;2023-04-19T00:35:44;102083.00;;;8.96;52.00
16255;BME280;8235;52.198;9.904;2023-04-19T00:38:10;102074.25;;;8.94;51.05
16255;BME280;8235;52.198;9.904;2023-04-19T00:40:37;102075.16;;;8.93;51.52
16255;BME280;8235;52.198;9.904;2023-04-19T00:43:03;102082.31;;;8.91;51.08
16255;BME280;8235;52.198;9.904;2023-04-19T00:45:31;102081.50;;;8.89;50.76
16255;BME280;8235;52.198;9.904;2023-04-19T00:48:00;102081.59;;;8.86;50.31
16255;BME280;8235;52.198;9.904;2023-04-19T00:50:26;102079.03;;;8.83;50.96
16255;BME280;8235;52.198;9.904;2023-04-19T00:52:54;102082.66;;;8.81;50.39
16255;BME280;8235;52.198;9.904;2023-04-19T00:57:06;102081.91;;;8.77;50.55
16255;BME280;8235;52.198;9.904;2023-04-19T00:58:58;102086.50;;;8.72;50.19
16255;BME280;8235;52.198;9.904;2023-04-19T01:01:24;102086.69;;;8.66;50.53
16255;BME280;8235;52.198;9.904;2023-04-19T01:03:54;102072.84;;;8.56;50.01
16255;BME280;8235;52.198;9.904;2023-04-19T01:06:21;102081.13;;;8.46;49.80
16255;BME280;8235;52.198;9.904;2023-04-19T01:08:48;102086.75;;;8.37;50.09
16255;BME280;8235;52.198;9.904;2023-04-19T01:11:14;102091.44;;;8.27;51.42
16255;BME280;8235;52.198;9.904;2023-04-19T01:13:41;102084.56;;;8.21;51.46
16255;BME280;8235;52.198;9.904;2023-04-19T01:16:07;102085.63;;;8.14;51.99
16255;BME280;8235;52.198;9.904;2023-04-19T01:18:35;102087.63;;;8.06;51.72
16255;BME280;8235;52.198;9.904;2023-04-19T01:21:06;102087.94;;;7.97;52.11
16255;BME280;8235;52.198;9.904;2023-04-19T01:23:34;102084.53;;;7.92;52.04
16255;BME280;8235;52.198;9.904;2023-04-19T01:26:03;102083.91;;;7.84;52.19
16255;BME280;8235;52.198;9.904;2023-04-19T01:28:30;102084.13;;;7.76;52.90
16255;BME280;8235;52.198;9.904;2023-04-19T01:30:57;102083.44;;;7.70;53.13
16255;BME280;8235;52.198;9.904;2023-04-19T01:33:24;102089.81;;;7.62;53.68
16255;BME280;8235;52.198;9.904;2023-04-19T01:35:50;102093.69;;;7.51;54.45
16255;BME280;8235;52.198;9.904;2023-04-19T01:38:17;102094.72;;;7.45;54.13
16255;BME280;8235;52.198;9.904;2023-04-19T01:40:44;102091.41;;;7.37;54.78
16255;BME280;8235;52.198;9.904;2023-04-19T01:43:12;102089.91;;;7.27;54.62
16255;BME280;8235;52.198;9.904;2023-04-19T01:45:39;102085.66;;;7.21;55.54
16255;BME280;8235;52.198;9.904;2023-04-19T01:48:06;102089.34;;;7.16;55.90
16255;BME280;8235;52.198;9.904;2023-04-19T01:50:32;102090.41;;;7.09;55.85
16255;BME280;8235;52.198;9.904;2023-04-19T01:52:59;102094.94;;;7.04;56.29
16255;BME280;8235;52.198;9.904;2023-04-19T01:55:26;102091.59;;;6.97;55.97
16255;BME280;8235;52.198;9.904;2023-04-19T01:57:53;102090.84;;;6.92;56.42
16255;BME280;8235;52.198;9.904;2023-04-19T02:01:16;102094.44;;;6.89;56.31
16255;BME280;8235;52.198;9.904;2023-04-19T02:03:31;102091.09;;;6.81;56.65
16255;BME280;8235;52.198;9.904;2023-04-19T02:05:57;102092.09;;;6.77;57.14
16255;BME280;8235;52.198;9.904;2023-04-19T02:08:24;102092.16;;;6.74;57.36
16255;BME280;8235;52.198;9.904;2023-04-19T02:10:50;102095.78;;;6.70;57.71
16255;BME280;8235;52.198;9.904;2023-04-19T02:13:18;102085.34;;;6.64;58.07
16255;BME280;8235;52.198;9.904;2023-04-19T02:15:44;102085.47;;;6.59;57.69
16255;BME280;8235;52.198;9.904;2023-04-19T02:18:11;102093.50;;;6.55;58.46
16255;BME280;8235;52.198;9.904;2023-04-19T02:20:37;102090.09;;;6.50;58.55
16255;BME280;8235;52.198;9.904;2023-04-19T02:23:04;102096.31;;;6.47;58.70
16255;BME280;8235;52.198;9.904;2023-04-19T02:25:30;102096.47;;;6.43;59.03
16255;BME280;8235;52.198;9.904;2023-04-19T02:27:57;102098.31;;;6.39;59.50
16255;BME280;8235;52.198;9.904;2023-04-19T02:30:25;102095.75;;;6.35;59.33
16255;BME280;8235;52.198;9.904;2023-04-19T02:32:51;102094.06;;;6.31;59.83
16255;BME280;8235;52.198;9.904;2023-04-19T02:35:19;102101.16;;;6.28;60.02
16255;BME280;8235;52.198;9.904;2023-04-19T02:37:45;102094.22;;;6.24;59.92
16255;BME280;8235;52.198;9.904;2023-04-19T02:40:12;102094.34;;;6.18;60.54
16255;BME280;8235;52.198;9.904;2023-04-19T02:42:38;102107.69;;;6.14;61.10
16255;BME280;8235;52.198;9.904;2023-04-19T02:45:06;102097.19;;;6.09;60.83
16255;BME280;8235;52.198;9.904;2023-04-19T02:47:34;102100.88;;;6.02;61.12
16255;BME280;8235;52.198;9.904;2023-04-19T02:50:01;102099.19;;;5.98;61.52
16255;BME280;8235;52.198;9.904;2023-04-19T02:52:27;102094.03;;;5.92;61.95
16255;BME280;8235;52.198;9.904;2023-04-19T02:57:28;102095.13;;;5.82;61.66
16255;BME280;8235;52.198;9.904;2023-04-19T02:59:54;102102.25;;;5.77;62.17
16255;BME280;8235;52.198;9.904;2023-04-19T03:02:21;102093.50;;;5.73;62.47
16255;BME280;8235;52.198;9.904;2023-04-19T03:04:48;102095.38;;;5.70;63.00
16255;BME280;8235;52.198;9.904;2023-04-19T03:07:15;102100.78;;;5.64;63.14
16255;BME280;8235;52.198;9.904;2023-04-19T03:09:41;102093.75;;;5.61;63.21
16255;BME280;8235;52.198;9.904;2023-04-19T03:12:08;102092.97;;;5.56;63.29
16255;BME280;8235;52.198;9.904;2023-04-19T03:14:34;102095.72;;;5.51;63.34
16255;BME280;8235;52.198;9.904;2023-04-19T03:17:01;102094.91;;;5.48;63.43
16255;BME280;8235;52.198;9.904;2023-04-19T03:19:28;102090.56;;;5.45;63.66
16255;BME280;8235;52.198;9.904;2023-04-19T03:21:56;102095.91;;;5.41;64.21
16255;BME280;8235;52.198;9.904;2023-04-19T03:24:26;102084.50;;;5.39;64.21
16255;BME280;8235;52.198;9.904;2023-04-19T03:26:53;102090.75;;;5.36;64.44
16255;BME280;8235;52.198;9.904;2023-04-19T03:29:19;102081.13;;;5.32;64.54
16255;BME280;8235;52.198;9.904;2023-04-19T03:31:46;102084.69;;;5.30;65.02
16255;BME280;8235;52.198;9.904;2023-04-19T03:34:13;102090.03;;;5.27;65.12
16255;BME280;8235;52.198;9.904;2023-04-19T03:36:39;102086.56;;;5.23;65.10
16255;BME280;8235;52.198;9.904;2023-04-19T03:39:07;102088.38;;;5.21;65.17
16255;BME280;8235;52.198;9.904;2023-04-19T03:41:33;102091.09;;;5.18;65.59
16255;BME280;8235;52.198;9.904;2023-04-19T03:44:00;102083.19;;;5.16;65.80
16255;BME280;8235;52.198;9.904;2023-04-19T03:46:27;102083.22;;;5.15;65.71
16255;BME280;8235;52.198;9.904;2023-04-19T03:48:55;102075.34;;;5.12;65.98
16255;BME280;8235;52.198;9.904;2023-04-19T03:51:22;102080.66;;;5.10;66.47
16255;BME280;8235;52.198;9.904;2023-04-19T03:53:48;102082.44;;;5.08;66.39
16255;BME280;8235;52.198;9.904;2023-04-19T03:56:16;102072.81;;;5.06;66.06
16255;BME280;8235;52.198;9.904;2023-04-19T03:58:43;102074.59;;;5.04;66.26
16255;BME280;8235;52.198;9.904;2023-04-19T04:01:16;102077.34;;;4.99;66.60
16255;BME280;8235;52.198;9.904;2023-04-19T04:03:43;102075.63;;;4.97;66.95
16255;BME280;8235;52.198;9.904;2023-04-19T04:06:09;102079.19;;;4.94;67.04
16255;BME280;8235;52.198;9.904;2023-04-19T04:08:36;102081.84;;;4.93;67.27
16255;BME280;8235;52.198;9.904;2023-04-19T04:11:02;102082.75;;;4.92;67.75
16255;BME280;8235;52.198;9.904;2023-04-19T04:13:30;102079.22;;;4.91;67.53
16255;BME280;8235;52.198;9.904;2023-04-19T04:15:56;102083.63;;;4.91;67.39
16255;BME280;8235;52.198;9.904;2023-04-19T04:18:23;102082.78;;;4.88;67.54
16255;BME280;8235;52.198;9.904;2023-04-19T04:20:51;102079.31;;;4.85;67.96
16255;BME280;8235;52.198;9.904;2023-04-19T04:23:17;102080.22;;;4.84;67.84
16255;BME280;8235;52.198;9.904;2023-04-19T04:25:45;102074.16;;;4.80;68.22
16255;BME280;8235;52.198;9.904;2023-04-19T04:28:12;102079.47;;;4.77;67.91
16255;BME280;8235;52.198;9.904;2023-04-19T04:30:40;102078.66;;;4.72;68.32
16255;BME280;8235;52.198;9.904;2023-04-19T04:33:06;102076.97;;;4.68;68.45
16255;BME280;8235;52.198;9.904;2023-04-19T04:35:36;102077.84;;;4.67;68.81
16255;BME280;8235;52.198;9.904;2023-04-19T04:38:02;102081.44;;;4.65;68.73
16255;BME280;8235;52.198;9.904;2023-04-19T04:40:29;102085.00;;;4.62;69.20
16255;BME280;8235;52.198;9.904;2023-04-19T04:42:56;102085.91;;;4.61;69.96
16255;BME280;8235;52.198;9.904;2023-04-19T04:45:25;102077.13;;;4.59;69.40
16255;BME280;8235;52.198;9.904;2023-04-19T04:47:57;102086.84;;;4.57;70.26
16255;BME280;8235;52.198;9.904;2023-04-19T04:50:23;102081.56;;;4.56;70.16
16255;BME280;8235;52.198;9.904;2023-04-19T04:52:51;102078.91;;;4.57;70.49
16255;BME280;8235;52.198;9.904;2023-04-19T04:55:18;102085.09;;;4.56;70.91
16255;BME280;8235;52.198;9.904;2023-04-19T04:57:44;102085.94;;;4.58;71.17
16255;BME280;8235;52.198;9.904;2023-04-19T05:00:11;102079.81;;;4.56;70.71
16255;BME280;8235;52.198;9.904;2023-04-19T05:02:38;102086.88;;;4.52;71.80
16255;BME280;8235;52.198;9.904;2023-04-19T05:05:07;102083.41;;;4.50;71.62
16255;BME280;8235;52.198;9.904;2023-04-19T05:07:35;102079.91;;;4.50;72.29
16255;BME280;8235;52.198;9.904;2023-04-19T05:10:01;102085.16;;;4.50;71.88
16255;BME280;8235;52.198;9.904;2023-04-19T05:12:28;102079.00;;;4.51;72.70
16255;BME280;8235;52.198;9.904;2023-04-19T05:14:54;102078.97;;;4.52;72.60
16255;BME280;8235;52.198;9.904;2023-04-19T05:17:21;102083.38;;;4.52;72.47
16255;BME280;8235;52.198;9.904;2023-04-19T05:19:47;102073.69;;;4.52;73.14
16255;BME280;8235;52.198;9.904;2023-04-19T05:22:15;102083.34;;;4.55;72.70
16255;BME280;8235;52.198;9.904;2023-04-19T05:24:42;102081.53;;;4.59;73.22
16255;BME280;8235;52.198;9.904;2023-04-19T05:27:09;102086.78;;;4.60;73.28
16255;BME280;8235;52.198;9.904;2023-04-19T05:29:35;102079.69;;;4.64;72.95
16255;BME280;8235;52.198;9.904;2023-04-19T05:32:02;102088.38;;;4.69;73.09
16255;BME280;8235;52.198;9.904;2023-04-19T05:34:29;102083.91;;;4.75;73.22
16255;BME280;8235;52.198;9.904;2023-04-19T05:36:55;102092.53;;;4.85;73.51
16255;BME280;8235;52.198;9.904;2023-04-19T05:39:23;102087.97;;;4.95;73.34
16255;BME280;8235;52.198;9.904;2023-04-19T05:41:49;102087.78;;;5.04;73.01
16255;BME280;8235;52.198;9.904;2023-04-19T05:44:16;102085.84;;;5.15;72.85
16255;BME280;8235;52.198;9.904;2023-04-19T05:46:42;102073.34;;;5.24;72.69
16255;BME280;8235;52.198;9.904;2023-04-19T05:49:09;102071.34;;;5.37;72.21
16255;BME280;8235;52.198;9.904;2023-04-19T05:51:35;102071.16;;;5.46;71.99
16255;BME280;8235;52.198;9.904;2023-04-19T05:54:02;102072.72;;;5.56;71.40
16255;BME280;8235;52.198;9.904;2023-04-19T05:56:30;102069.94;;;5.63;70.38
16255;BME280;8235;52.198;9.904;2023-04-19T05:58:56;102070.59;;;5.74;70.58
16255;BME280;8235;52.198;9.904;2023-04-19T06:01:25;102066.00;;;5.83;70.14
16255;BME280;8235;52.198;9.904;2023-04-19T06:03:51;102071.09;;;5.92;69.11
16255;BME280;8235;52.198;9.904;2023-04-19T06:06:20;102070.94;;;6.02;68.90
16255;BME280;8235;52.198;9.904;2023-04-19T06:08:47;102071.53;;;6.13;68.85
16255;BME280;8235;52.198;9.904;2023-04-19T06:11:14;102076.69;;;6.20;68.18
16255;BME280;8235;52.198;9.904;2023-04-19T06:13:41;102068.44;;;6.33;68.51
16255;BME280;8235;52.198;9.904;2023-04-19T06:16:09;102076.06;;;6.46;67.96
16255;BME280;8235;52.198;9.904;2023-04-19T06:18:36;102074.03;;;6.57;67.75
16255;BME280;8235;52.198;9.904;2023-04-19T06:21:03;102072.03;;;6.67;67.05
16255;BME280;8235;52.198;9.904;2023-04-19T06:23:30;102064.72;;;6.78;66.36
16255;BME280;8235;52.198;9.904;2023-04-19T06:25:57;102067.06;;;6.89;66.16
16255;BME280;8235;52.198;9.904;2023-04-19T06:28:23;102065.97;;;6.97;64.94
16255;BME280;8235;52.198;9.904;2023-04-19T06:30:51;102064.94;;;7.03;64.15
16255;BME280;8235;52.198;9.904;2023-04-19T06:33:18;102057.66;;;7.11;64.30
16255;BME280;8235;52.198;9.904;2023-04-19T06:35:44;102063.63;;;7.19;64.16
16255;BME280;8235;52.198;9.904;2023-04-19T06:38:11;102061.59;;;7.29;63.48
16255;BME280;8235;52.198;9.904;2023-04-19T06:40:37;102061.34;;;7.38;64.12
16255;BME280;8235;52.198;9.904;2023-04-19T06:43:03;102065.41;;;7.51;63.70
16255;BME280;8235;52.198;9.904;2023-04-19T06:45:30;102063.25;;;7.64;63.46
16255;BME280;8235;52.198;9.904;2023-04-19T06:47:58;102063.81;;;7.75;62.85
16255;BME280;8235;52.198;9.904;2023-04-19T06:50:25;102061.91;;;7.80;61.51
16255;BME280;8235;52.198;9.904;2023-04-19T06:52:52;102065.25;;;7.87;60.98
16255;BME280;8235;52.198;9.904;2023-04-19T06:55:18;102058.78;;;7.95;61.22
16255;BME280;8235;52.198;9.904;2023-04-19T06:57:45;102055.00;;;8.04;60.85
16255;BME280;8235;52.198;9.904;2023-04-19T07:00:12;102053.88;;;8.11;60.38
16255;BME280;8235;52.198;9.904;2023-04-19T07:02:39;102052.78;;;8.18;60.27
16255;BME280;8235;52.198;9.904;2023-04-19T07:05:07;102046.25;;;8.28;60.66
16255;BME280;8235;52.198;9.904;2023-04-19T07:07:34;102051.34;;;8.38;59.35
16255;BME280;8235;52.198;9.904;2023-04-19T07:10:02;102045.81;;;8.44;58.11
16255;BME280;8235;52.198;9.904;2023-04-19T07:12:28;102046.38;;;8.53;58.25
16255;BME280;8235;52.198;9.904;2023-04-19T07:14:55;102037.22;;;8.62;58.82
16255;BME280;8235;52.198;9.904;2023-04-19T07:17:21;102035.94;;;8.75;59.07
16255;BME280;8235;52.198;9.904;2023-04-19T07:19:48;102047.06;;;8.86;57.29
16255;BME280;8235;52.198;9.904;2023-04-19T07:22:16;102033.47;;;8.95;57.27
16255;BME280;8235;52.198;9.904;2023-04-19T07:24:42;102031.34;;;9.05;57.21
16255;BME280;8235;52.198;9.904;2023-04-19T07:27:09;102023.16;;;9.11;56.41
16255;BME280;8235;52.198;9.904;2023-04-19T07:29:36;102023.78;;;9.18;55.83
16255;BME280;8235;52.198;9.904;2023-04-19T07:32:03;102021.84;;;9.23;54.36
16255;BME280;8235;52.198;9.904;2023-04-19T07:34:30;102023.47;;;9.27;53.62
16255;BME280;8235;52.198;9.904;2023-04-19T07:36:56;102019.56;;;9.37;54.09
16255;BME280;8235;52.198;9.904;2023-04-19T07:39:24;102023.47;;;9.50;54.85
16255;BME280;8235;52.198;9.904;2023-04-19T07:41:51;102022.00;;;9.66;54.62
16255;BME280;8235;52.198;9.904;2023-04-19T07:44:17;102019.75;;;9.79;54.53
16255;BME280;8235;52.198;9.904;2023-04-19T07:46:44;102015.69;;;9.92;53.41
16255;BME280;8235;52.198;9.904;2023-04-19T07:49:10;102016.44;;;9.96;52.01
16255;BME280;8235;52.198;9.904;2023-04-19T07:51:37;102018.00;;;10.01;51.80
16255;BME280;8235;52.198;9.904;2023-04-19T07:54:03;102018.66;;;10.06;51.60
16255;BME280;8235;52.198;9.904;2023-04-19T07:56:31;102014.91;;;10.12;51.30
16255;BME280;8235;52.198;9.904;2023-04-19T07:58:58;102019.19;;;10.16;51.22
16255;BME280;8235;52.198;9.904;2023-04-19T08:01:25;102012.75;;;10.22;50.36
16255;BME280;8235;52.198;9.904;2023-04-19T08:03:52;102006.38;;;10.26;49.29
16255;BME280;8235;52.198;9.904;2023-04-19T08:06:18;102008.88;;;10.30;49.83
16255;BME280;8235;52.198;9.904;2023-04-19T08:08:45;102007.81;;;10.34;49.15
16255;BME280;8235;52.198;9.904;2023-04-19T08:11:12;102005.16;;;10.34;48.84
16255;BME280;8235;52.198;9.904;2023-04-19T08:13:40;101997.97;;;10.36;48.63
16255;BME280;8235;52.198;9.904;2023-04-19T08:16:07;101988.03;;;10.40;48.35
16255;BME280;8235;52.198;9.904;2023-04-19T08:18:33;101999.31;;;10.47;48.33
16255;BME280;8235;52.198;9.904;2023-04-19T08:21:00;101990.28;;;10.51;47.79
16255;BME280;8235;52.198;9.904;2023-04-19T08:23:26;101987.28;;;10.58;48.49
16255;BME280;8235;52.198;9.904;2023-04-19T08:25:53;101992.09;;;10.70;47.95
16255;BME280;8235;52.198;9.904;2023-04-19T08:28:19;101973.97;;;10.78;47.55
16255;BME280;8235;52.198;9.904;2023-04-19T08:30:47;101978.94;;;10.88;47.54
16255;BME280;8235;52.198;9.904;2023-04-19T08:33:14;101965.13;;;10.98;47.75
16255;BME280;8235;52.198;9.904;2023-04-19T08:35:40;101980.50;;;11.12;46.85
16255;BME280;8235;52.198;9.904;2023-04-19T08:38:07;101975.69;;;11.20;45.77
16255;BME280;8235;52.198;9.904;2023-04-19T08:40:34;101977.16;;;11.27;46.23
16255;BME280;8235;52.198;9.904;2023-04-19T08:43:04;101983.06;;;11.34;45.01
16255;BME280;8235;52.198;9.904;2023-04-19T08:45:31;101974.59;;;11.44;44.78
16255;BME280;8235;52.198;9.904;2023-04-19T08:48:00;101973.28;;;11.53;44.53
16255;BME280;8235;52.198;9.904;2023-04-19T08:50:27;101969.16;;;11.65;45.09
16255;BME280;8235;52.198;9.904;2023-04-19T08:52:53;101962.69;;;11.70;43.81
16255;BME280;8235;52.198;9.904;2023-04-19T08:55:21;101964.28;;;11.74;42.17
16255;BME280;8235;52.198;9.904;2023-04-19T08:57:47;101960.88;;;11.71;41.20
16255;BME280;8235;52.198;9.904;2023-04-19T09:00:15;101956.56;;;11.68;41.75
16255;BME280;8235;52.198;9.904;2023-04-19T09:02:46;101949.03;;;11.78;42.63
16255;BME280;8235;52.198;9.904;2023-04-19T09:05:15;101953.03;;;11.87;42.39
16255;BME280;8235;52.198;9.904;2023-04-19T09:07:42;101946.28;;;11.98;42.36
16255;BME280;8235;52.198;9.904;2023-04-19T09:10:10;101951.22;;;12.06;41.16
16255;BME280;8235;52.198;9.904;2023-04-19T09:12:37;101944.78;;;12.10;40.22
16255;BME280;8235;52.198;9.904;2023-04-19T09:15:06;101935.69;;;12.14;40.10
16255;BME280;8235;52.198;9.904;2023-04-19T09:17:33;101943.31;;;12.22;40.35
16255;BME280;8235;52.198;9.904;2023-04-19T09:20:00;101940.34;;;12.28;39.98
16255;BME280;8235;52.198;9.904;2023-04-19T09:22:27;101926.78;;;12.32;39.83
16255;BME280;8235;52.198;9.904;2023-04-19T09:24:54;101920.22;;;12.38;39.77
16255;BME280;8235;52.198;9.904;2023-04-19T09:27:26;101907.34;;;12.46;38.75
16255;BME280;8235;52.198;9.904;2023-04-19T09:29:53;101905.13;;;12.54;38.78
16255;BME280;8235;52.198;9.904;2023-04-19T09:32:20;101909.22;;;12.61;38.19
16255;BME280;8235;52.198;9.904;2023-04-19T09:34:51;101902.72;;;12.67;38.10
16255;BME280;8235;52.198;9.904;2023-04-19T09:37:18;101891.44;;;12.77;38.26
16255;BME280;8235;52.198;9.904;2023-04-19T09:39:46;101898.72;;;12.91;37.92
16255;BME280;8235;52.198;9.904;2023-04-19T09:42:12;101886.69;;;13.00;37.41
16255;BME280;8235;52.198;9.904;2023-04-19T09:44:39;101884.56;;;13.06;37.16
16255;BME280;8235;52.198;9.904;2023-04-19T09:47:21;101887.91;;;13.10;35.40
16255;BME280;8235;52.198;9.904;2023-04-19T09:50:03;101877.91;;;13.13;35.21
16255;BME280;8235;52.198;9.904;2023-04-19T09:52:31;101874.25;;;13.16;34.61
16255;BME280;8235;52.198;9.904;2023-04-19T09:55:00;101875.19;;;13.15;32.89
16255;BME280;8235;52.198;9.904;2023-04-19T09:57:27;101862.91;;;13.11;32.27
16255;BME280;8235;52.198;9.904;2023-04-19T09:59:53;101870.72;;;13.15;33.22
16255;BME280;8235;52.198;9.904;2023-04-19T10:02:21;101865.91;;;13.22;33.09
16255;BME280;8235;52.198;9.904;2023-04-19T10:04:49;101859.53;;;13.25;32.94
16255;BME280;8235;52.198;9.904;2023-04-19T10:07:17;101847.69;;;13.29;32.79
16255;BME280;8235;52.198;9.904;2023-04-19T10:09:44;101849.41;;;13.30;32.85
16255;BME280;8235;52.198;9.904;2023-04-19T10:12:14;101841.03;;;13.36;34.03
16255;BME280;8235;52.198;9.904;2023-04-19T10:14:41;101844.13;;;13.44;33.97
16255;BME280;8235;52.198;9.904;2023-04-19T10:17:08;101842.84;;;13.51;34.01
16255;BME280;8235;52.198;9.904;2023-04-19T10:19:36;101831.91;;;13.55;34.54
16255;BME280;8235;52.198;9.904;2023-04-19T10:22:03;101827.16;;;13.61;34.27
16255;BME280;8235;52.198;9.904;2023-04-19T10:24:32;101825.75;;;13.69;34.59
16255;BME280;8235;52.198;9.904;2023-04-19T10:27:08;101829.81;;;13.76;33.67
16255;BME280;8235;52.198;9.904;2023-04-19T10:29:56;101821.78;;;13.76;33.30
16255;BME280;8235;52.198;9.904;2023-04-19T10:32:23;101820.63;;;13.80;33.94
16255;BME280;8235;52.198;9.904;2023-04-19T10:34:51;101816.41;;;13.76;32.12
16255;BME280;8235;52.198;9.904;2023-04-19T10:37:21;101802.25;;;13.74;32.33
16255;BME280;8235;52.198;9.904;2023-04-19T10:39:49;101804.06;;;13.74;31.31
16255;BME280;8235;52.198;9.904;2023-04-19T10:42:15;101791.38;;;13.77;31.70
16255;BME280;8235;52.198;9.904;2023-04-19T10:47:50;101776.16;;;13.78;29.86
16255;BME280;8235;52.198;9.904;2023-04-19T10:50:17;101766.88;;;13.83;30.67
16255;BME280;8235;52.198;9.904;2023-04-19T10:52:43;101769.03;;;13.93;31.45
16255;BME280;8235;52.198;9.904;2023-04-19T10:55:14;101781.38;;;13.95;29.65
16255;BME280;8235;52.198;9.904;2023-04-19T10:58:03;101757.19;;;13.97;29.62
16255;BME280;8235;52.198;9.904;2023-04-19T11:00:29;101757.94;;;13.99;28.51
16255;BME280;8235;52.198;9.904;2023-04-19T11:02:59;101772.50;;;13.95;28.42
16255;BME280;8235;52.198;9.904;2023-04-19T11:05:26;101752.19;;;13.90;27.73
16255;BME280;8235;52.198;9.904;2023-04-19T11:07:52;101746.94;;;13.89;27.99
16255;BME280;8235;52.198;9.904;2023-04-19T11:10:27;101737.66;;;13.95;29.11
16255;BME280;8235;52.198;9.904;2023-04-19T11:12:54;101741.41;;;14.06;29.22
16255;BME280;8235;52.198;9.904;2023-04-19T11:15:21;101734.84;;;14.12;28.00
16255;BME280;8235;52.198;9.904;2023-04-19T11:17:49;101731.56;;;14.07;27.70
16255;BME280;8235;52.198;9.904;2023-04-19T11:20:22;101738.81;;;14.05;28.35
16255;BME280;8235;52.198;9.904;2023-04-19T11:22:48;101726.56;;;14.01;27.44
16255;BME280;8235;52.198;9.904;2023-04-19T11:25:16;101720.84;;;14.07;28.38
16255;BME280;8235;52.198;9.904;2023-04-19T11:27:45;101721.44;;;14.12;27.87
16255;BME280;8235;52.198;9.904;2023-04-19T11:30:13;101723.94;;;14.15;28.06
16255;BME280;8235;52.198;9.904;2023-04-19T11:32:44;101710.41;;;14.16;28.60
16255;BME280;8235;52.198;9.904;2023-04-19T11:35:13;101705.91;;;14.17;29.19
16255;BME280;8235;52.198;9.904;2023-04-19T11:37:41;101712.81;;;14.21;28.32
16255;BME280;8235;52.198;9.904;2023-04-19T11:40:08;101707.47;;;14.21;28.18
16255;BME280;8235;52.198;9.904;2023-04-19T11:42:34;101702.88;;;14.23;28.89
16255;BME280;8235;52.198;9.904;2023-04-19T11:45:01;101700.00;;;14.26;28.06
16255;BME280;8235;52.198;9.904;2023-04-19T11:47:28;101704.41;;;14.27;27.91
16255;BME280;8235;52.198;9.904;2023-04-19T11:49:55;101699.25;;;14.24;28.00
16255;BME280;8235;52.198;9.904;2023-04-19T11:52:22;101694.47;;;14.29;28.85
16255;BME280;8235;52.198;9.904;2023-04-19T11:54:51;101692.75;;;14.28;28.17
16255;BME280;8235;52.198;9.904;2023-04-19T11:57:28;101684.03;;;14.24;28.53
16255;BME280;8235;52.198;9.904;2023-04-19T12:00:02;101687.47;;;14.27;28.93
16255;BME280;8235;52.198;9.904;2023-04-19T12:02:36;101687.38;;;14.28;29.01
16255;BME280;8235;52.198;9.904;2023-04-19T12:05:07;101681.16;;;14.28;28.52
16255;BME280;8235;52.198;9.904;2023-04-19T12:07:34;101682.03;;;14.28;29.45
16255;BME280;8235;52.198;9.904;2023-04-19T12:10:09;101687.56;;;14.39;29.77
16255;BME280;8235;52.198;9.904;2023-04-19T12:12:36;101676.59;;;14.44;29.78
16255;BME280;8235;52.198;9.904;2023-04-19T12:15:03;101678.31;;;14.45;29.51
16255;BME280;8235;52.198;9.904;2023-04-19T12:17:30;101671.81;;;14.49;29.62
16255;BME280;8235;52.198;9.904;2023-04-19T12:19:56;101674.06;;;14.55;29.42
16255;BME280;8235;52.198;9.904;2023-04-19T12:22:23;101672.75;;;14.62;29.05
16255;BME280;8235;52.198;9.904;2023-04-19T12:24:50;101670.06;;;14.62;28.19
16255;BME280;8235;52.198;9.904;2023-04-19T12:27:18;101661.06;;;14.63;28.56
16255;BME280;8235;52.198;9.904;2023-04-19T12:29:49;101670.91;;;14.63;28.87
16255;BME280;8235;52.198;9.904;2023-04-19T12:32:16;101644.69;;;14.68;29.36
16255;BME280;8235;52.198;9.904;2023-04-19T12:34:42;101661.50;;;14.70;28.71
16255;BME280;8235;52.198;9.904;2023-04-19T12:37:09;101650.25;;;14.65;27.75
16255;BME280;8235;52.198;9.904;2023-04-19T12:39:35;101651.38;;;14.61;28.06
16255;BME280;8235;52.198;9.904;2023-04-19T12:42:02;101644.00;;;14.64;29.08
16255;BME280;8235;52.198;9.904;2023-04-19T12:44:31;101645.53;;;14.68;28.89
16255;BME280;8235;52.198;9.904;2023-04-19T12:46:57;101632.88;;;14.70;29.81
16255;BME280;8235;52.198;9.904;2023-04-19T12:49:24;101639.75;;;14.74;29.44
16255;BME280;8235;52.198;9.904;2023-04-19T12:51:50;101628.66;;;14.80;29.95
16255;BME280;8235;52.198;9.904;2023-04-19T12:54:17;101640.03;;;14.84;29.95
16255;BME280;8235;52.198;9.904;2023-04-19T12:56:43;101639.09;;;14.85;30.74
16255;BME280;8235;52.198;9.904;2023-04-19T12:59:10;101635.63;;;14.83;30.43
16255;BME280;8235;52.198;9.904;2023-04-19T13:01:38;101636.97;;;14.76;30.19
16255;BME280;8235;52.198;9.904;2023-04-19T13:04:04;101630.50;;;14.66;30.05
16255;BME280;8235;52.198;9.904;2023-04-19T13:06:35;101649.50;;;14.48;30.07
16255;BME280;8235;52.198;9.904;2023-04-19T13:09:02;101640.00;;;14.29;29.68
16255;BME280;8235;52.198;9.904;2023-04-19T13:11:28;101632.25;;;14.24;30.37
16255;BME280;8235;52.198;9.904;2023-04-19T13:13:55;101628.81;;;14.22;30.27
16255;BME280;8235;52.198;9.904;2023-04-19T13:16:21;101636.06;;;14.20;31.13